Time;durP1;ratioP1;P1;durP2;ratioP2;P2;SDS_P1;SDS_P2;PMS_P1;PMS_P2;Temp;Humidity;BMP_temperature;BMP_pressure;BME280_temperature;BME280_humidity;BME280_pressure;Samples;Min_cycle;Max_cycle;Signal;HPM_P1;HPM_P2
2022/09/22 00:01:33;;;;;;;5.63;2.67;;;8.90;99.90;;;;;;4916020;29;38092;-80
2022/09/22 00:04:05;;;;;;;6.33;2.70;;;8.90;99.90;;;;;;4918079;29;38950;-79
2022/09/22 00:06:39;;;;;;;6.38;2.97;;;8.90;99.90;;;;;;4928150;29;48042;-81
2022/09/22 00:09:20;;;;;;;10.87;3.20;;;8.90;99.90;;;;;;4912746;29;39137;-80
2022/09/22 00:11:49;;;;;;;6.87;3.07;;;8.90;99.90;;;;;;4914689;29;39112;-80
2022/09/22 00:14:26;;;;;;;5.43;3.20;;;8.90;99.90;;;;;;4907148;29;39267;-81
2022/09/22 00:16:59;;;;;;;6.17;3.70;;;8.80;99.90;;;;;;4901410;29;36683;-79
2022/09/22 00:19:32;;;;;;;7.90;3.27;;;8.80;99.90;;;;;;4919312;29;39458;-80
2022/09/22 00:22:00;;;;;;;4.13;2.88;;;8.80;99.90;;;;;;4905986;29;37798;-80
2022/09/22 00:24:27;;;;;;;5.33;3.27;;;8.80;99.90;;;;;;4922927;29;39797;-80
2022/09/22 00:26:56;;;;;;;7.87;3.47;;;8.80;99.90;;;;;;4921933;29;38133;-79
2022/09/22 00:29:24;;;;;;;7.23;3.50;;;8.70;99.90;;;;;;4909441;29;39125;-80
2022/09/22 00:31:50;;;;;;;5.33;3.70;;;8.70;99.90;;;;;;4902378;29;38428;-80
2022/09/22 00:34:20;;;;;;;7.13;3.60;;;8.70;99.90;;;;;;4894216;29;38837;-80
2022/09/22 00:36:49;;;;;;;6.90;4.07;;;8.70;99.90;;;;;;4908943;29;38605;-80
2022/09/22 00:39:17;;;;;;;7.57;3.73;;;8.70;99.90;;;;;;4898586;29;39314;-80
2022/09/22 00:41:47;;;;;;;4.97;3.67;;;8.70;99.90;;;;;;4896563;29;38407;-80
2022/09/22 00:44:40;;;;;;;7.30;3.93;;;8.70;99.90;;;;;;4895033;29;37395;-79
2022/09/22 00:47:33;;;;;;;5.97;3.28;;;8.70;99.90;;;;;;4915920;29;37190;-80
2022/09/22 00:50:02;;;;;;;5.60;3.83;;;8.60;99.90;;;;;;4907684;29;37976;-80
2022/09/22 00:52:43;;;;;;;6.07;3.33;;;8.70;99.90;;;;;;4898760;29;40775;-80
2022/09/22 00:55:33;;;;;;;6.73;3.53;;;8.60;99.90;;;;;;4897075;29;36650;-80
2022/09/22 00:58:00;;;;;;;7.10;4.10;;;8.60;99.90;;;;;;4881807;29;36233;-80
2022/09/22 01:03:07;;;;;;;10.67;4.73;;;8.60;99.90;;;;;;5241924;23;20069;-81
2022/09/22 01:05:35;;;;;;;5.63;4.30;;;8.60;99.90;;;;;;4879622;29;46632;-81
2022/09/22 01:08:02;;;;;;;8.57;4.03;;;8.60;99.90;;;;;;4903424;29;38331;-81
2022/09/22 01:10:29;;;;;;;7.93;4.40;;;8.60;99.90;;;;;;4883803;29;37369;-81
2022/09/22 01:13:24;;;;;;;8.33;4.17;;;8.60;99.90;;;;;;4886746;29;37213;-80
2022/09/22 01:16:10;;;;;;;7.03;3.77;;;8.50;99.90;;;;;;4866665;29;50221;-80
2022/09/22 01:18:58;;;;;;;8.27;4.63;;;8.50;99.90;;;;;;4881560;29;47189;-80
2022/09/22 01:21:53;;;;;;;7.33;4.50;;;8.50;99.90;;;;;;4874689;29;38813;-81
2022/09/22 01:24:40;;;;;;;10.00;4.23;;;8.50;99.90;;;;;;4881202;29;37981;-81
2022/09/22 01:27:21;;;;;;;6.20;4.27;;;8.50;99.90;;;;;;4899451;29;38520;-81
2022/09/22 01:30:10;;;;;;;8.03;4.17;;;8.50;99.90;;;;;;4903449;29;36965;-80
2022/09/22 01:33:01;;;;;;;5.23;4.17;;;8.50;99.90;;;;;;4896153;29;48878;-81
2022/09/22 01:35:51;;;;;;;9.97;4.90;;;8.50;99.90;;;;;;4901615;29;37502;-81
2022/09/22 01:38:41;;;;;;;6.90;4.30;;;8.50;99.90;;;;;;4902622;29;40157;-81
2022/09/22 01:41:32;;;;;;;6.53;4.57;;;8.40;99.90;;;;;;4902182;29;38505;-80
2022/09/22 01:44:03;;;;;;;10.80;5.07;;;8.40;99.90;;;;;;4879244;29;37916;-80
2022/09/22 01:46:34;;;;;;;9.00;4.80;;;8.40;99.90;;;;;;4907620;29;47154;-81
2022/09/22 01:49:07;;;;;;;8.73;4.47;;;8.40;99.90;;;;;;4889148;29;37388;-80
2022/09/22 01:51:56;;;;;;;7.70;4.80;;;8.30;99.90;;;;;;4878528;29;46964;-80
2022/09/22 01:54:30;;;;;;;10.83;5.00;;;8.30;99.90;;;;;;4878786;29;38021;-80
2022/09/22 01:57:29;;;;;;;8.13;4.97;;;8.30;99.90;;;;;;4882260;29;39459;-81
2022/09/22 02:00:02;;;;;;;6.53;4.10;;;8.30;99.90;;;;;;4807693;29;46941;-80
2022/09/22 02:02:36;;;;;;;7.28;4.72;;;8.30;99.90;;;;;;4912651;29;36149;-81
2022/09/22 02:05:15;;;;;;;8.97;5.47;;;8.30;99.90;;;;;;4894011;29;39618;-81
2022/09/22 02:07:47;;;;;;;6.43;4.33;;;8.20;99.90;;;;;;4887101;29;46908;-80
2022/09/22 02:10:18;;;;;;;10.00;4.60;;;8.20;99.90;;;;;;4887986;29;37467;-80
2022/09/22 02:12:46;;;;;;;5.70;3.70;;;8.20;99.90;;;;;;4887487;29;36871;-81
2022/09/22 02:18:02;;;;;;;5.80;4.17;;;8.20;99.90;;;;;;4893853;29;39947;-81
2022/09/22 02:20:29;;;;;;;7.13;4.88;;;8.20;99.90;;;;;;4879329;29;47597;-81
2022/09/22 02:22:56;;;;;;;11.87;5.63;;;8.20;99.90;;;;;;4880977;29;36239;-80
2022/09/22 02:25:23;;;;;;;9.37;5.30;;;8.20;99.90;;;;;;4897990;29;39913;-80
2022/09/22 02:27:53;;;;;;;9.87;4.97;;;8.20;99.90;;;;;;4880241;29;39625;-80
2022/09/22 02:30:21;;;;;;;7.53;4.27;;;8.10;99.90;;;;;;4886247;29;40165;-80
2022/09/22 02:32:51;;;;;;;12.17;5.33;;;8.20;99.90;;;;;;4874791;29;37436;-80
2022/09/22 02:35:18;;;;;;;7.77;5.20;;;8.10;99.90;;;;;;4895611;29;40860;-80
2022/09/22 02:38:02;;;;;;;8.03;5.13;;;8.10;99.90;;;;;;4897408;29;39277;-80
2022/09/22 02:40:45;;;;;;;9.07;5.10;;;8.10;99.90;;;;;;4897723;29;48561;-80
2022/09/22 02:43:36;;;;;;;9.43;5.53;;;8.10;99.90;;;;;;4894100;29;39195;-81
2022/09/22 02:46:27;;;;;;;7.70;5.03;;;8.10;99.90;;;;;;4908420;29;38006;-80
2022/09/22 02:49:04;;;;;;;12.83;6.10;;;8.10;99.90;;;;;;4883794;29;47535;-80
2022/09/22 02:51:31;;;;;;;10.60;5.67;;;8.00;99.90;;;;;;4899690;29;48750;-80
2022/09/22 02:53:57;;;;;;;8.60;5.73;;;8.00;99.90;;;;;;4889351;29;37135;-81
2022/09/22 02:56:24;;;;;;;8.30;6.77;;;8.00;99.90;;;;;;4885700;29;37629;-80
2022/09/22 02:58:58;;;;;;;9.47;6.87;;;8.00;99.90;;;;;;4905725;29;39477;-80
2022/09/22 03:01:24;;;;;;;10.05;6.35;;;8.00;99.90;;;;;;4905323;29;38166;-80
2022/09/22 03:03:51;;;;;;;8.93;5.57;;;8.00;99.90;;;;;;4906456;29;38694;-79
2022/09/22 03:06:17;;;;;;;12.53;7.17;;;8.00;99.90;;;;;;4884783;29;38622;-80
2022/09/22 03:08:43;;;;;;;8.90;6.13;;;8.00;99.90;;;;;;4907906;29;38810;-80
2022/09/22 03:11:09;;;;;;;8.10;5.27;;;8.00;99.90;;;;;;4907790;29;39121;-79
2022/09/22 03:13:36;;;;;;;11.77;7.17;;;8.00;99.90;;;;;;4905662;29;37123;-80
2022/09/22 03:16:06;;;;;;;11.83;7.03;;;7.90;99.90;;;;;;4890177;29;39274;-81
2022/09/22 03:18:32;;;;;;;13.30;6.90;;;7.90;99.90;;;;;;4887655;29;48100;-80
2022/09/22 03:20:58;;;;;;;10.13;6.70;;;7.90;99.90;;;;;;4889651;29;38578;-80
2022/09/22 03:23:25;;;;;;;9.53;6.67;;;7.90;99.90;;;;;;4886488;29;36042;-80
2022/09/22 03:25:51;;;;;;;9.77;7.30;;;7.90;99.90;;;;;;4888687;29;38074;-80
2022/09/22 03:28:18;;;;;;;8.53;6.73;;;7.90;99.90;;;;;;4897245;29;39459;-80
2022/09/22 03:30:44;;;;;;;11.87;8.03;;;7.90;99.90;;;;;;4903593;29;38937;-81
2022/09/22 03:33:12;;;;;;;14.27;8.07;;;7.90;99.90;;;;;;4897747;29;36823;-80
2022/09/22 03:35:40;;;;;;;10.27;7.07;;;7.80;99.90;;;;;;4898761;29;38109;-80
2022/09/22 03:38:08;;;;;;;13.27;8.23;;;7.80;99.90;;;;;;4893837;29;37925;-81
2022/09/22 03:40:35;;;;;;;17.50;9.73;;;7.80;99.90;;;;;;4891455;29;38323;-79
2022/09/22 03:43:01;;;;;;;11.27;8.03;;;7.80;99.90;;;;;;4859048;29;36175;-80
2022/09/22 03:45:28;;;;;;;13.40;8.90;;;7.80;99.90;;;;;;4913519;29;38558;-81
2022/09/22 03:47:54;;;;;;;12.23;8.03;;;7.80;99.90;;;;;;4900752;29;38562;-80
2022/09/22 03:50:21;;;;;;;13.03;8.73;;;7.80;99.90;;;;;;4888234;29;37270;-81
2022/09/22 03:52:47;;;;;;;9.17;7.60;;;7.80;99.90;;;;;;4889314;29;36746;-79
2022/09/22 03:55:13;;;;;;;12.03;8.80;;;7.80;99.90;;;;;;4884115;29;39098;-80
2022/09/22 03:57:42;;;;;;;11.50;7.87;;;7.80;99.90;;;;;;4889916;29;38625;-80
2022/09/22 04:00:08;;;;;;;13.13;7.53;;;7.80;99.90;;;;;;4900110;29;39074;-80
2022/09/22 04:02:35;;;;;;;12.70;8.23;;;7.70;99.90;;;;;;4886179;29;35881;-80
2022/09/22 04:05:01;;;;;;;13.13;8.23;;;7.70;99.90;;;;;;4886486;29;38578;-80
2022/09/22 04:07:27;;;;;;;10.07;7.60;;;7.70;99.90;;;;;;4900654;29;40416;-80
2022/09/22 04:09:53;;;;;;;12.27;7.93;;;7.70;99.90;;;;;;4884467;29;37145;-80
2022/09/22 04:12:20;;;;;;;13.27;9.67;;;7.70;99.90;;;;;;4906105;29;37515;-80
2022/09/22 04:14:46;;;;;;;13.20;9.87;;;7.70;99.90;;;;;;4885650;29;37717;-80
2022/09/22 04:17:12;;;;;;;14.43;10.27;;;7.70;99.90;;;;;;4903327;29;38535;-80
2022/09/22 04:19:38;;;;;;;13.43;10.23;;;7.60;99.90;;;;;;4880792;29;38763;-80
2022/09/22 04:22:05;;;;;;;17.27;11.97;;;7.70;99.90;;;;;;4888396;29;36003;-80
2022/09/22 04:24:31;;;;;;;15.00;10.83;;;7.70;99.90;;;;;;4903977;29;39159;-79
2022/09/22 04:26:57;;;;;;;15.57;12.03;;;7.60;99.90;;;;;;4902787;29;39123;-80
2022/09/22 04:29:24;;;;;;;15.27;11.17;;;7.60;99.90;;;;;;4882930;29;37431;-79
2022/09/22 04:31:50;;;;;;;18.20;12.03;;;7.60;99.90;;;;;;4884262;29;36111;-79
2022/09/22 04:34:16;;;;;;;15.27;11.20;;;7.70;99.90;;;;;;4900220;29;38683;-80
2022/09/22 04:36:42;;;;;;;16.67;12.33;;;7.60;99.90;;;;;;4896435;29;38501;-79
2022/09/22 04:39:08;;;;;;;16.67;12.83;;;7.60;99.90;;;;;;4897529;29;39351;-79
2022/09/22 04:41:34;;;;;;;16.23;12.00;;;7.60;99.90;;;;;;4883010;29;36543;-81
2022/09/22 04:46:36;;;;;;;17.97;13.17;;;7.60;99.90;;;;;;5196242;23;21311;-80
2022/09/22 04:49:03;;;;;;;19.30;13.90;;;7.60;99.90;;;;;;4894381;29;38669;-80
2022/09/22 04:51:29;;;;;;;19.57;12.83;;;7.60;99.90;;;;;;4883284;29;47510;-80
2022/09/22 04:53:55;;;;;;;15.70;12.47;;;7.60;99.90;;;;;;4885165;29;38730;-80
2022/09/22 04:56:22;;;;;;;20.97;14.13;;;7.60;99.90;;;;;;4887447;29;39396;-80
2022/09/22 04:58:48;;;;;;;15.50;13.00;;;7.60;99.90;;;;;;4883924;29;37083;-80
2022/09/22 05:01:14;;;;;;;18.87;14.10;;;7.60;99.90;;;;;;4879273;29;37487;-80
2022/09/22 05:03:40;;;;;;;19.00;14.80;;;7.60;99.90;;;;;;4906583;29;39411;-80
2022/09/22 05:06:06;;;;;;;20.67;15.10;;;7.50;99.90;;;;;;4890423;29;38946;-80
2022/09/22 05:08:33;;;;;;;18.90;14.40;;;7.60;99.90;;;;;;4919158;29;39016;-80
2022/09/22 05:10:59;;;;;;;20.70;15.17;;;7.50;99.90;;;;;;5151327;23;36823;-81
2022/09/22 05:13:29;;;;;;;23.00;17.97;;;7.60;99.90;;;;;;5060058;23;38989;-82
2022/09/22 05:21:39;;;;;;;25.93;18.90;;;7.50;99.90;;;;;;5090383;23;4058345;-82
2022/09/22 05:24:32;;;;;;;23.70;18.00;;;7.50;99.90;;;;;;4919560;28;40201;-82
2022/09/22 05:27:57;;;;;;;20.47;17.17;;;7.50;99.90;;;;;;4879120;29;41236;-81
2022/09/22 05:30:57;;;;;;;23.13;18.67;;;7.50;99.90;;;;;;4877245;28;48423;-82
2022/09/22 05:33:49;;;;;;;24.63;19.30;;;7.50;99.90;;;;;;4887714;29;38187;-82
2022/09/22 05:36:37;;;;;;;21.63;17.67;;;7.50;99.90;;;;;;4899030;29;40232;-82
2022/09/22 05:39:38;;;;;;;23.45;18.48;;;7.50;99.90;;;;;;4891779;29;39641;-82
2022/09/22 05:42:28;;;;;;;24.80;18.87;;;7.50;99.90;;;;;;4957963;23;20044;-82
2022/09/22 05:45:01;;;;;;;26.97;20.03;;;7.60;99.90;;;;;;4912230;29;37450;-82
2022/09/22 05:47:28;;;;;;;25.20;19.80;;;7.50;99.90;;;;;;4910467;29;37637;-82
2022/09/22 05:50:12;;;;;;;27.23;20.17;;;7.60;99.90;;;;;;4906813;29;37522;-82
2022/09/22 05:52:39;;;;;;;28.27;20.63;;;7.60;99.90;;;;;;4884081;29;46743;-82
2022/09/22 05:57:38;;;;;;;27.07;20.93;;;7.60;99.90;;;;;;4913074;29;20075;-80
2022/09/22 06:00:11;;;;;;;27.70;22.03;;;7.70;99.90;;;;;;4916050;29;39002;-81
2022/09/22 06:05:13;;;;;;;30.33;21.87;;;7.70;99.90;;;;;;5565877;23;19928;-82
2022/09/22 06:11:06;;;;;;;25.03;21.03;;;7.80;99.90;;;;;;4979442;23;50239;-80
2022/09/22 06:16:08;;;;;;;28.00;20.97;;;7.80;99.90;;;;;;5562606;23;20350;-79
2022/09/22 06:18:59;;;;;;;30.35;22.00;;;7.90;99.90;;;;;;5214104;23;37598;31
2022/09/22 06:21:25;;;;;;;31.83;24.93;;;7.90;99.90;;;;;;4888840;29;37382;-81
2022/09/22 06:29:13;;;;;;;31.13;24.63;;;8.00;99.90;;;;;;5056521;23;20045;-81
2022/09/22 06:31:56;;;;;;;30.87;23.87;;;8.00;99.90;;;;;;4912798;29;38528;-81
2022/09/22 06:34:24;;;;;;;30.15;24.65;;;8.10;99.90;;;;;;4872839;29;38750;-81
2022/09/22 06:36:58;;;;;;;31.77;25.07;;;8.10;99.90;;;;;;4880371;29;37636;-82
2022/09/22 06:39:26;;;;;;;32.97;25.40;;;8.20;99.90;;;;;;4907674;29;39838;-81
2022/09/22 06:41:55;;;;;;;32.87;26.77;;;8.30;99.90;;;;;;4888060;29;40857;-82
2022/09/22 06:44:21;;;;;;;32.30;26.07;;;8.30;99.90;;;;;;4885809;29;37981;-81
2022/09/22 06:49:24;;;;;;;41.00;29.17;;;8.50;99.90;;;;;;5051340;23;20067;-80
2022/09/22 06:51:50;;;;;;;34.80;28.67;;;8.50;99.90;;;;;;4929759;29;39637;-78
2022/09/22 06:54:16;;;;;;;40.37;31.87;;;8.60;99.90;;;;;;4899436;29;37118;-79
2022/09/22 06:56:42;;;;;;;40.43;30.03;;;8.70;99.90;;;;;;4904680;29;36305;-79
2022/09/22 06:59:12;;;;;;;45.90;34.27;;;8.80;99.90;;;;;;4904918;29;37651;-80
2022/09/22 07:01:40;;;;;;;46.37;35.43;;;8.90;99.90;;;;;;4899244;29;38490;-79
2022/09/22 07:04:07;;;;;;;70.40;47.83;;;9.00;99.90;;;;;;4902114;29;37957;-80
2022/09/22 07:06:34;;;;;;;53.00;38.20;;;9.10;99.90;;;;;;4906195;29;36003;-79
2022/09/22 07:09:00;;;;;;;64.17;45.00;;;9.20;99.90;;;;;;4902257;29;37702;-79
2022/09/22 07:11:26;;;;;;;67.00;47.97;;;9.30;99.90;;;;;;4901106;29;37440;-79
2022/09/22 07:13:53;;;;;;;72.43;49.47;;;9.50;99.90;;;;;;4912338;29;37659;-79
2022/09/22 07:16:22;;;;;;;47.20;38.50;;;9.70;99.90;;;;;;4905543;29;36256;-78
2022/09/22 07:18:52;;;;;;;55.07;43.03;;;9.70;99.90;;;;;;4904551;29;38009;-79
2022/09/22 07:21:20;;;;;;;54.07;42.73;;;9.90;99.90;;;;;;4920905;29;39788;-82
2022/09/22 07:23:48;;;;;;;54.50;44.13;;;10.00;99.90;;;;;;4920919;29;39182;-82
2022/09/22 07:26:18;;;;;;;81.13;54.67;;;10.10;99.90;;;;;;4922320;29;37391;-82
2022/09/22 07:28:45;;;;;;;61.20;45.78;;;10.20;99.90;;;;;;4924757;29;39525;-83
2022/09/22 07:31:13;;;;;;;64.13;45.73;;;10.30;99.90;;;;;;4908704;29;37463;-82
2022/09/22 07:33:41;;;;;;;71.77;53.67;;;10.40;99.90;;;;;;4908126;29;37926;-82
2022/09/22 07:36:11;;;;;;;69.50;48.90;;;10.60;99.90;;;;;;4910369;29;37581;-82
2022/09/22 07:38:38;;;;;;;56.65;46.35;;;10.70;99.90;;;;;;4929014;29;39001;-82
2022/09/22 07:41:28;;;;;;;56.20;43.10;;;10.90;99.90;;;;;;4932482;29;39363;-82
2022/09/22 07:43:56;;;;;;;64.93;42.42;;;11.00;99.90;;;;;;4934563;29;49074;-82
2022/09/22 07:46:23;;;;;;;63.17;47.38;;;11.10;99.90;;;;;;4919666;29;36874;-82
2022/09/22 07:48:49;;;;;;;49.38;40.35;;;11.20;99.90;;;;;;4930422;29;39150;-82
2022/09/22 07:51:22;;;;;;;49.60;39.58;;;11.30;99.90;;;;;;4919820;29;38977;-82
2022/09/22 07:54:05;;;;;;;50.13;37.28;;;11.40;99.90;;;;;;4907886;29;37643;-83
2022/09/22 07:56:33;;;;;;;41.83;34.95;;;11.50;99.90;;;;;;4936453;29;48259;-82
2022/09/22 07:59:09;;;;;;;45.83;37.63;;;11.60;99.90;;;;;;4923099;29;37816;-82
2022/09/22 08:01:37;;;;;;;60.03;39.83;;;11.80;99.90;;;;;;4920837;29;48166;-83
2022/09/22 08:04:04;;;;;;;45.08;37.72;;;12.00;99.90;;;;;;4938144;28;39387;-82
2022/09/22 08:06:31;;;;;;;40.55;33.70;;;12.00;99.90;;;;;;4923643;29;35836;-83
2022/09/22 08:08:59;;;;;;;41.38;34.88;;;12.20;99.90;;;;;;4920370;28;39031;-82
2022/09/22 08:11:27;;;;;;;41.38;33.97;;;12.20;99.90;;;;;;4924239;29;38744;-83
2022/09/22 08:13:58;;;;;;;48.28;36.63;;;12.30;99.90;;;;;;4941620;28;40167;-83
2022/09/22 08:16:28;;;;;;;34.33;30.57;;;12.40;99.90;;;;;;4921703;29;36466;-83
2022/09/22 08:19:12;;;;;;;37.85;30.02;;;12.50;99.90;;;;;;4925244;29;38283;-82
2022/09/22 08:21:52;;;;;;;34.17;29.38;;;12.70;99.90;;;;;;4922889;29;47924;-82
2022/09/22 08:24:20;;;;;;;30.55;27.08;;;12.80;99.90;;;;;;4903158;29;39121;-79
2022/09/22 08:26:49;;;;;;;31.15;23.42;;;12.90;99.90;;;;;;5214809;23;36150;-81
2022/09/22 09:12:31;;;;;;;;;;;14.90;99.90;;;;;;6005154;23;20920;-80
2022/09/22 09:15:15;;;;;;;27.73;17.17;;;15.00;99.90;;;;;;5153950;23;40706;-80
2022/09/22 09:20:38;;;;;;;23.27;14.75;;;15.30;99.90;;;;;;5499306;23;20041;-83
2022/09/22 09:25:42;;;;;;;22.70;14.98;;;15.50;99.90;;;;;;5268479;23;20560;-81
2022/09/22 09:28:34;;;;;;;21.85;14.98;;;15.80;99.90;;;;;;4880726;29;37957;-83
2022/09/22 09:31:27;;;;;;;17.37;14.10;;;16.20;99.90;;;;;;4887591;29;40545;-84
2022/09/22 09:34:16;;;;;;;20.20;14.25;;;16.40;99.90;;;;;;4898563;29;48981;-85
2022/09/22 09:36:47;;;;;;;14.43;11.07;;;16.20;99.90;;;;;;4902044;29;48709;-82
2022/09/22 09:39:25;;;;;;;17.67;11.63;;;16.20;99.90;;;;;;4878875;29;37875;-81
2022/09/22 09:41:52;;;;;;;13.98;11.35;;;16.40;99.90;;;;;;4903039;29;38062;-84
2022/09/22 09:44:26;;;;;;;13.93;10.85;;;16.30;99.90;;;;;;4882036;29;37754;-84
2022/09/22 09:47:12;;;;;;;18.88;10.95;;;16.50;99.90;;;;;;4888606;29;36185;-85
2022/09/22 09:49:38;;;;;;;13.15;10.52;;;16.60;99.90;;;;;;4880134;29;47123;-85
2022/09/22 09:52:10;;;;;;;15.20;10.55;;;16.70;99.90;;;;;;4883865;29;39542;-84
2022/09/22 09:54:36;;;;;;;14.00;11.13;;;16.90;99.90;;;;;;4897753;29;38405;-85
2022/09/22 09:57:08;;;;;;;16.35;10.77;;;16.80;99.90;;;;;;4900450;29;37907;-84
2022/09/22 10:02:30;;;;;;;19.35;11.95;;;16.50;99.90;;;;;;4901239;29;39716;-83
2022/09/22 10:05:01;;;;;;;;;;;16.40;99.90;;;;;;4911381;29;38100;-83
2022/09/22 10:07:48;;;;;;;15.50;9.75;;;16.30;99.90;;;;;;4889661;29;36805;-83
2022/09/22 10:10:36;;;;;;;14.82;9.95;;;16.50;99.90;;;;;;4877528;29;38032;-83
2022/09/22 10:13:05;;;;;;;12.48;9.02;;;17.00;99.90;;;;;;4881203;29;39685;-84
2022/09/22 10:15:36;;;;;;;17.15;8.13;;;17.10;99.90;;;;;;4903913;29;48729;-84
2022/09/22 10:18:22;;;;;;;9.27;7.10;;;17.00;99.90;;;;;;4888239;29;36111;-83
2022/09/22 10:21:14;;;;;;;10.50;6.90;;;17.00;99.90;;;;;;4900633;29;48316;-85
2022/09/22 10:23:48;;;;;;;9.50;5.78;;;16.90;99.90;;;;;;4889334;29;48192;-82
2022/09/22 10:26:26;;;;;;;8.80;5.05;;;17.30;99.90;;;;;;4898568;29;39452;-84
2022/09/22 10:29:16;;;;;;;7.35;5.00;;;17.20;99.90;;;;;;4888917;29;36365;-84
2022/09/22 10:32:01;;;;;;;5.63;4.18;;;17.00;99.90;;;;;;4875043;29;46903;-83
2022/09/22 10:34:31;;;;;;;6.72;3.28;;;17.20;99.90;;;;;;4888050;29;38908;-85
2022/09/22 10:36:59;;;;;;;7.00;3.60;;;17.40;99.90;;;;;;4889318;29;37460;-84
2022/09/22 10:39:46;;;;;;;4.63;3.35;;;17.30;99.90;;;;;;4880329;29;35989;-85
2022/09/22 10:42:24;;;;;;;7.20;3.45;;;17.60;99.90;;;;;;4880049;29;37611;-85
2022/09/22 10:44:53;;;;;;;4.63;2.92;;;18.00;99.90;;;;;;4906125;29;39212;-86
2022/09/22 10:47:26;;;;;;;5.57;3.10;;;18.10;99.90;;;;;;4885958;29;37442;-82
2022/09/22 10:50:07;;;;;;;3.10;2.38;;;18.20;99.90;;;;;;4891215;29;38110;-84
2022/09/22 10:52:40;;;;;;;3.60;2.30;;;18.10;99.90;;;;;;4882088;29;47151;-83
2022/09/22 10:55:21;;;;;;;;;;;18.30;99.90;;;;;;4898604;29;39472;-86
2022/09/22 10:58:00;;;;;;;2.88;2.53;;;18.40;99.90;;;;;;4890199;29;37892;-85
2022/09/22 11:00:27;;;;;;;6.97;3.75;;;18.40;99.90;;;;;;4872519;29;36762;-85
2022/09/22 11:03:11;;;;;;;5.30;3.28;;;18.40;99.90;;;;;;4873217;29;38912;-84
2022/09/22 11:12:17;;;;;;;7.32;4.70;;;18.70;99.90;;;;;;4897350;29;50305;-83
2022/09/22 11:14:56;;;;;;;6.22;4.80;;;18.40;99.90;;;;;;4888991;29;47025;-84
2022/09/22 11:18:03;;;;;;;6.57;4.43;;;18.40;99.90;;;;;;4893381;29;37902;-86
2022/09/22 11:20:38;;;;;;;9.45;4.18;;;18.80;99.90;;;;;;4880042;29;47165;-86
2022/09/22 11:23:35;;;;;;;8.02;4.18;;;18.90;99.90;;;;;;4892815;29;38188;-84
2022/09/22 11:26:34;;;;;;;7.78;5.55;;;18.80;99.90;;;;;;4890480;29;39153;-82
2022/09/22 11:29:14;;;;;;;7.20;4.70;;;18.60;99.90;;;;;;4870514;29;47148;-82
2022/09/22 11:31:46;;;;;;;7.40;3.55;;;18.70;99.90;;;;;;4885587;29;47386;-87
2022/09/22 11:34:24;;;;;;;;;;;18.80;99.90;;;;;;4899523;29;37265;-83
2022/09/22 11:36:56;;;;;;;6.75;2.90;;;18.70;99.90;;;;;;4882064;29;37669;-85
2022/09/22 11:39:51;;;;;;;5.00;3.10;;;18.90;99.90;;;;;;4880183;29;37101;-83
2022/09/22 11:42:28;;;;;;;5.03;2.55;;;19.00;99.90;;;;;;4886537;29;37064;-84
2022/09/22 11:45:15;;;;;;;4.50;2.10;;;18.80;99.90;;;;;;4888762;29;36266;-84
2022/09/22 11:48:16;;;;;;;5.63;3.05;;;19.10;99.90;;;;;;4896248;29;49126;-82
2022/09/22 11:51:03;;;;;;;6.88;2.63;;;19.00;99.90;;;;;;4883870;29;48951;-82
2022/09/22 11:54:10;;;;;;;7.60;3.08;;;18.80;99.90;;;;;;4892781;29;38544;-85
2022/09/22 11:56:41;;;;;;;4.30;2.63;;;18.80;99.90;;;;;;4875876;29;47458;-83
2022/09/22 11:59:34;;;;;;;5.88;1.92;;;19.20;99.90;;;;;;4896753;29;37654;-82
2022/09/22 12:02:09;;;;;;;4.70;1.63;;;19.30;99.90;;;;;;4883911;29;47092;-84
2022/09/22 12:04:41;;;;;;;6.18;2.50;;;19.00;99.90;;;;;;4881601;29;47476;-85
2022/09/22 12:07:17;;;;;;;4.95;2.38;;;18.80;99.90;;;;;;4904451;29;37203;-83
2022/09/22 12:09:54;;;;;;;2.75;2.08;;;18.60;99.90;;;;;;4900078;29;39676;-83
2022/09/22 12:12:23;;;;;;;5.28;2.70;;;18.70;99.90;;;;;;4887009;29;38645;-84
2022/09/22 12:15:00;;;;;;;4.32;2.70;;;18.80;99.90;;;;;;4901367;29;39400;-85
2022/09/22 12:17:35;;;;;;;4.80;3.10;;;19.00;99.90;;;;;;4881320;29;36414;-84
2022/09/22 12:20:01;;;;;;;7.60;3.33;;;19.10;99.90;;;;;;4888218;29;37702;-84
2022/09/22 12:22:52;;;;;;;5.35;3.13;;;19.10;99.90;;;;;;4907178;29;39200;-83
2022/09/22 12:25:44;;;;;;;4.90;3.22;;;18.80;99.90;;;;;;4880001;29;37528;-82
2022/09/22 12:28:17;;;;;;;4.32;3.80;;;18.90;99.90;;;;;;4901233;29;38259;-83
2022/09/22 12:31:03;;;;;;;4.90;2.90;;;18.80;99.90;;;;;;4906843;29;39952;-83
2022/09/22 12:33:34;;;;;;;6.68;3.75;;;18.90;99.90;;;;;;4887066;29;39407;-85
2022/09/22 12:36:02;;;;;;;6.10;4.10;;;18.90;99.90;;;;;;4907617;29;38109;-84
2022/09/22 12:38:30;;;;;;;8.07;4.10;;;18.70;99.90;;;;;;4872471;29;38127;-84
2022/09/22 12:41:01;;;;;;;5.20;3.90;;;18.90;99.90;;;;;;4878682;29;39130;-82
2022/09/22 12:43:28;;;;;;;7.47;3.90;;;19.10;99.90;;;;;;4896510;29;38521;-82
2022/09/22 12:45:57;;;;;;;6.10;3.95;;;19.10;99.90;;;;;;4882783;29;38504;-82
2022/09/22 12:48:29;;;;;;;6.25;3.40;;;19.00;99.90;;;;;;4897440;29;37038;-83
2022/09/22 12:51:16;;;;;;;10.20;3.97;;;19.00;99.90;;;;;;4881394;29;38024;-80
2022/09/22 12:53:42;;;;;;;5.18;3.85;;;19.30;99.90;;;;;;4876666;29;47199;-83
2022/09/22 12:56:48;;;;;;;6.00;3.70;;;19.40;99.90;;;;;;4883612;29;37615;-83
2022/09/22 12:59:36;;;;;;;4.10;2.83;;;19.60;99.90;;;;;;4882052;29;38136;-83
2022/09/22 13:02:14;;;;;;;4.85;3.30;;;19.60;99.90;;;;;;4878094;29;38908;-79
2022/09/22 13:05:02;;;;;;;7.35;3.42;;;19.50;99.90;;;;;;4902136;29;39716;-83
2022/09/22 13:07:41;;;;;;;6.38;2.50;;;19.50;99.90;;;;;;4881159;29;37393;-82
2022/09/22 13:10:26;;;;;;;6.60;2.53;;;19.50;99.90;;;;;;4893509;29;37404;-80
2022/09/22 13:13:10;;;;;;;6.53;3.00;;;19.20;99.90;;;;;;4892872;29;39544;-82
2022/09/22 13:15:48;;;;;;;6.35;2.92;;;19.50;99.90;;;;;;4871681;29;47612;-82
2022/09/22 13:18:38;;;;;;;3.50;2.00;;;19.70;99.90;;;;;;4899655;29;38313;-83
2022/09/22 13:21:12;;;;;;;4.80;3.17;;;19.60;99.90;;;;;;4880769;29;35984;-82
2022/09/22 13:23:53;;;;;;;6.07;3.08;;;19.50;99.90;;;;;;4906241;29;38610;-83
2022/09/22 13:26:20;;;;;;;5.85;2.75;;;19.40;99.90;;;;;;4902184;29;38323;-83
2022/09/22 13:29:04;;;;;;;3.75;1.50;;;19.10;99.90;;;;;;4885483;29;37543;-84
2022/09/22 13:31:44;;;;;;;1.90;1.20;;;19.50;99.90;;;;;;4896729;29;48078;-84
2022/09/22 13:34:26;;;;;;;4.03;0.90;;;19.80;99.90;;;;;;4889660;29;37908;-82
2022/09/22 13:37:19;;;;;;;2.65;1.00;;;19.90;99.90;;;;;;4894439;29;39920;-83
2022/09/22 13:39:49;;;;;;;3.58;1.50;;;20.00;99.90;;;;;;4874261;29;47321;-83
2022/09/22 13:42:21;;;;;;;3.33;1.02;;;19.90;99.90;;;;;;4897447;29;38302;-82
2022/09/22 13:44:57;;;;;;;3.22;1.08;;;19.90;99.90;;;;;;4881029;29;37491;-83
2022/09/22 13:47:24;;;;;;;5.63;1.02;;;20.00;99.90;;;;;;4894696;29;38959;-83
2022/09/22 13:49:53;;;;;;;2.55;0.93;;;20.00;99.90;;;;;;4882120;29;37263;-85
2022/09/22 13:52:23;;;;;;;3.97;1.38;;;20.10;99.90;;;;;;4879621;29;36112;-95
2022/09/22 13:54:55;;;;;;;6.15;2.15;;;19.90;99.90;;;;;;4896243;29;37892;-85
2022/09/22 13:57:26;;;;;;;5.95;2.22;;;19.50;99.90;;;;;;4903731;29;38722;-85
2022/09/22 13:59:56;;;;;;;5.03;2.57;;;19.40;99.90;;;;;;4871885;29;37215;-85
2022/09/22 14:02:23;;;;;;;3.78;2.25;;;19.40;99.90;;;;;;4887410;29;37396;-82
2022/09/22 14:05:00;;;;;;;4.60;2.20;;;19.60;99.90;;;;;;4891177;29;37405;-82
2022/09/22 14:07:32;;;;;;;4.22;2.10;;;19.60;99.90;;;;;;4871941;29;38095;-84
2022/09/22 14:10:01;;;;;;;8.88;2.30;;;19.60;99.90;;;;;;4899442;29;38882;-89
2022/09/22 14:12:28;;;;;;;5.80;2.35;;;19.50;99.90;;;;;;4874549;29;35864;-82
2022/09/22 14:14:54;;;;;;;6.63;2.50;;;19.20;99.90;;;;;;4884985;29;37893;-83
2022/09/22 14:17:25;;;;;;;3.88;1.90;;;19.10;99.90;;;;;;4885786;29;37011;-84
2022/09/22 14:19:58;;;;;;;2.42;1.55;;;19.20;99.90;;;;;;4880984;29;37661;-83
2022/09/22 14:22:26;;;;;;;8.63;1.90;;;19.30;99.90;;;;;;4872138;29;36795;-82
2022/09/22 14:25:02;;;;;;;5.95;1.58;;;19.30;99.90;;;;;;4848462;29;37777;-85
2022/09/22 14:27:38;;;;;;;4.72;2.10;;;19.50;99.90;;;;;;4884597;29;39060;-83
2022/09/22 14:30:05;;;;;;;4.57;2.20;;;19.30;99.90;;;;;;4894079;29;38507;-83
2022/09/22 14:32:41;;;;;;;5.35;2.58;;;19.30;99.90;;;;;;4871855;29;36151;-86
2022/09/22 14:35:16;;;;;;;4.97;2.75;;;19.30;99.90;;;;;;4866201;29;37629;-84
2022/09/22 14:37:47;;;;;;;4.50;2.40;;;19.30;99.90;;;;;;4901727;29;37734;-84
2022/09/22 14:40:22;;;;;;;4.85;2.58;;;19.30;99.90;;;;;;4890087;29;38987;-84
2022/09/22 14:43:03;;;;;;;7.22;2.63;;;19.40;99.90;;;;;;4889917;29;37798;-84
2022/09/22 14:45:30;;;;;;;4.95;2.10;;;19.40;99.90;;;;;;4874930;29;47212;-84
2022/09/22 14:48:12;;;;;;;6.55;2.10;;;19.40;99.90;;;;;;4887748;29;38674;-86
2022/09/22 14:50:44;;;;;;;4.43;2.75;;;19.40;99.90;;;;;;4868653;29;47132;-86
2022/09/22 14:53:22;;;;;;;8.48;3.13;;;19.20;99.90;;;;;;4868227;29;36812;-86